createdAt,value
2022-07-25T00:01:37.410Z,3.10
2022-07-25T00:11:45.253Z,2.97
2022-07-25T00:16:49.703Z,2.70
2022-07-25T00:21:53.418Z,2.78
2022-07-25T00:26:56.605Z,3.25
2022-07-25T00:32:02.160Z,2.78
2022-07-25T00:37:05.314Z,3.17
2022-07-25T00:42:08.396Z,2.85
2022-07-25T00:47:12.999Z,2.80
2022-07-25T00:52:16.348Z,2.70
2022-07-25T00:57:19.496Z,2.70
2022-07-25T01:02:23.902Z,2.80
2022-07-25T01:07:27.455Z,2.50
2022-07-25T01:12:30.733Z,2.47
2022-07-25T01:17:35.285Z,2.47
2022-07-25T01:22:39.684Z,2.60
2022-07-25T01:27:44.093Z,2.70
2022-07-25T01:32:47.941Z,2.60
2022-07-25T01:37:52.385Z,2.05
2022-07-25T01:42:55.462Z,1.87
2022-07-25T01:47:58.910Z,2.45
2022-07-25T01:53:03.730Z,2.60
2022-07-25T01:58:07.426Z,2.08
2022-07-25T02:03:29.530Z,2.25
2022-07-25T02:08:34.722Z,2.20
2022-07-25T02:13:37.764Z,2.42
2022-07-25T02:18:40.760Z,2.00
2022-07-25T02:23:45.562Z,2.08
2022-07-25T02:28:49.713Z,2.47
2022-07-25T02:33:52.852Z,2.10
2022-07-25T02:38:57.230Z,2.50
2022-07-25T02:44:00.310Z,2.43
2022-07-25T02:49:03.970Z,2.30
2022-07-25T02:54:08.431Z,2.17
2022-07-25T02:59:11.506Z,2.50
2022-07-25T03:04:15.242Z,2.25
2022-07-25T03:09:21.503Z,2.65
2022-07-25T03:14:24.543Z,2.50
2022-07-25T03:19:27.640Z,2.20
2022-07-25T03:24:32.072Z,2.30
2022-07-25T03:29:35.902Z,2.73
2022-07-25T03:34:39.097Z,5.90
2022-07-25T03:39:43.511Z,2.13
2022-07-25T03:44:46.644Z,2.43
2022-07-25T03:49:49.657Z,1.85
2022-07-25T03:54:54.004Z,2.30
2022-07-25T03:59:57.046Z,2.67
2022-07-25T04:05:00.181Z,2.53
2022-07-25T04:10:05.725Z,2.63
2022-07-25T04:15:10.385Z,2.70
2022-07-25T04:20:13.512Z,2.00
2022-07-25T04:25:18.055Z,2.10
2022-07-25T04:30:24.492Z,2.33
2022-07-25T04:35:28.002Z,2.22
2022-07-25T04:40:32.454Z,2.50
2022-07-25T04:45:35.746Z,2.10
2022-07-25T04:50:39.037Z,2.33
2022-07-25T04:55:43.433Z,2.10
2022-07-25T05:00:46.740Z,2.13
2022-07-25T05:05:49.798Z,2.40
2022-07-25T05:10:54.190Z,2.10
2022-07-25T05:15:57.261Z,2.08
2022-07-25T05:21:00.301Z,2.40
2022-07-25T05:26:04.905Z,2.65
2022-07-25T05:36:11.027Z,2.40
2022-07-25T05:41:16.189Z,2.63
2022-07-25T05:46:19.341Z,2.10
2022-07-25T05:51:26.737Z,2.80
2022-07-25T05:56:31.900Z,2.35
2022-07-25T06:06:37.970Z,2.90
2022-07-25T06:11:54.559Z,2.80
2022-07-25T06:17:03.802Z,2.88
2022-07-25T06:22:08.300Z,2.50
2022-07-25T06:27:16.019Z,2.63
2022-07-25T06:32:21.549Z,2.97
2022-07-25T06:37:24.639Z,2.50
2022-07-25T06:42:31.371Z,2.22
2022-07-25T06:47:36.175Z,2.67
2022-07-25T06:52:39.583Z,3.10
2022-07-25T06:57:43.994Z,3.40
2022-07-25T07:02:52.190Z,3.47
2022-07-25T07:07:55.587Z,3.35
2022-07-25T07:13:08.227Z,3.38
2022-07-25T07:18:11.373Z,3.70
2022-07-25T07:23:16.520Z,3.77
2022-07-25T07:28:21.345Z,3.55
2022-07-25T07:33:24.451Z,3.85
2022-07-25T07:38:27.728Z,4.10
2022-07-25T07:43:32.176Z,3.85
2022-07-25T07:48:36.143Z,3.55
2022-07-25T07:53:57.585Z,3.47
2022-07-25T07:59:02.022Z,4.15
2022-07-25T08:04:05.688Z,4.25
2022-07-25T08:14:13.797Z,3.78
2022-07-25T08:19:16.899Z,4.70
2022-07-25T08:24:19.974Z,4.13
2022-07-25T08:29:28.212Z,4.05
2022-07-25T08:34:32.394Z,3.92
2022-07-25T08:39:35.433Z,4.30
2022-07-25T08:44:44.144Z,5.15
2022-07-25T08:49:47.219Z,4.57
2022-07-25T08:54:51.605Z,6.13
2022-07-25T08:59:59.002Z,5.25
2022-07-25T09:05:02.146Z,4.90
2022-07-25T09:10:16.452Z,5.65
2022-07-25T09:15:29.496Z,4.95
2022-07-25T09:25:43.632Z,5.47
2022-07-25T09:30:55.141Z,6.03
2022-07-25T09:35:58.433Z,5.28
2022-07-25T09:41:02.939Z,4.68
2022-07-25T09:46:08.498Z,5.43
2022-07-25T09:51:12.522Z,5.53
2022-07-25T09:56:15.613Z,5.53
2022-07-25T10:06:39.033Z,5.45
2022-07-25T10:12:06.168Z,5.60
2022-07-25T10:17:21.348Z,5.60
2022-07-25T10:22:55.143Z,7.07
2022-07-25T10:28:08.222Z,5.95
2022-07-25T10:33:14.514Z,5.85
2022-07-25T10:38:24.858Z,5.97
2022-07-25T10:43:29.156Z,5.70
2022-07-25T10:48:33.580Z,6.70
2022-07-25T10:53:41.010Z,6.18
2022-07-25T10:58:46.749Z,6.15
2022-07-25T11:03:51.927Z,6.20
2022-07-25T11:08:57.753Z,6.55
2022-07-25T11:14:01.414Z,6.18
2022-07-25T11:19:16.407Z,5.80
2022-07-25T11:24:20.038Z,6.45
2022-07-25T11:29:26.970Z,6.15
2022-07-25T11:34:33.787Z,5.72
2022-07-25T11:39:38.921Z,6.50
2022-07-25T11:44:48.156Z,5.20
2022-07-25T11:49:54.370Z,6.13
2022-07-25T11:55:01.307Z,6.05
2022-07-25T12:00:09.223Z,6.03
2022-07-25T12:05:15.474Z,5.95
2022-07-25T12:10:21.734Z,5.50
2022-07-25T12:15:26.839Z,6.43
2022-07-25T12:20:33.478Z,5.45
2022-07-25T12:25:37.998Z,6.32
2022-07-25T12:30:43.015Z,5.97
2022-07-25T12:35:47.638Z,5.57
2022-07-25T12:40:51.007Z,6.03
2022-07-25T12:45:54.202Z,6.03
2022-07-25T12:50:58.621Z,5.35
2022-07-25T12:56:01.743Z,5.65
2022-07-25T13:06:10.466Z,5.65
2022-07-25T13:11:13.585Z,5.55
2022-07-25T13:16:16.843Z,5.95
2022-07-25T13:26:25.029Z,5.45
2022-07-25T13:31:28.154Z,6.30
2022-07-25T13:41:36.691Z,5.97
2022-07-25T13:56:48.649Z,5.40
2022-07-25T14:06:56.174Z,5.40
2022-07-25T14:11:59.281Z,5.80
2022-07-25T14:22:06.810Z,5.65
2022-07-25T14:27:10.682Z,5.43
2022-07-25T14:32:13.858Z,6.28
2022-07-25T14:42:21.645Z,5.40
2022-07-25T14:47:27.311Z,5.60
2022-07-25T14:52:32.194Z,5.82
2022-07-25T14:57:35.414Z,5.40
2022-07-25T15:02:38.453Z,5.43
2022-07-25T15:07:42.803Z,5.30
2022-07-25T15:12:45.853Z,5.22
2022-07-25T15:17:48.879Z,5.53
2022-07-25T15:22:53.344Z,5.30
2022-07-25T15:27:57.342Z,5.65
2022-07-25T15:33:00.423Z,5.70
2022-07-25T15:43:07.926Z,5.55
2022-07-25T15:48:13.909Z,5.35
2022-07-25T15:53:18.375Z,6.07
2022-07-25T15:58:21.458Z,5.32
2022-07-25T16:03:24.678Z,5.00
2022-07-25T16:08:29.106Z,5.13
2022-07-25T16:13:32.301Z,6.30
2022-07-25T16:18:35.606Z,5.05
2022-07-25T16:23:44.948Z,5.57
2022-07-25T16:28:48.917Z,5.28
2022-07-25T16:33:52.375Z,5.60
2022-07-25T16:38:57.245Z,4.88
2022-07-25T16:44:00.455Z,5.78
2022-07-25T16:49:04.299Z,8.57
2022-07-25T16:54:09.067Z,7.30
2022-07-25T16:59:12.265Z,7.32
2022-07-25T17:04:15.590Z,8.27
2022-07-25T17:09:20.084Z,7.57
2022-07-25T17:14:26.422Z,3.40
2022-07-25T17:19:35.841Z,3.92
2022-07-25T17:24:40.499Z,3.45
2022-07-25T17:29:43.682Z,3.58
2022-07-25T17:34:47.173Z,3.97
2022-07-25T17:39:51.722Z,4.18
2022-07-25T17:44:54.834Z,6.30
2022-07-25T17:49:57.860Z,6.35
2022-07-25T17:55:02.323Z,6.63
2022-07-25T18:00:07.223Z,7.72
2022-07-25T18:05:14.810Z,8.15
2022-07-25T18:10:21.762Z,7.88
2022-07-25T18:15:25.014Z,7.43
2022-07-25T18:20:28.237Z,7.25
2022-07-25T18:25:32.793Z,8.07
2022-07-25T18:30:36.269Z,7.63
2022-07-25T18:35:39.388Z,6.95
2022-07-25T18:40:43.741Z,7.65
2022-07-25T18:45:47.973Z,8.15
2022-07-25T18:50:51.005Z,7.90
2022-07-25T18:55:55.525Z,8.07
2022-07-25T19:00:58.895Z,7.78
2022-07-25T19:06:03.644Z,8.77
2022-07-25T19:21:15.513Z,7.88
2022-07-25T19:26:21.009Z,7.97
2022-07-25T19:31:24.255Z,8.45
2022-07-25T19:36:27.584Z,8.35
2022-07-25T19:41:32.234Z,6.88
2022-07-25T19:46:35.661Z,5.95
2022-07-25T19:51:38.733Z,6.78
2022-07-25T19:56:43.184Z,6.53
2022-07-25T20:01:47.391Z,6.10
2022-07-25T20:06:50.842Z,42.03
2022-07-25T20:11:56.227Z,40.58
2022-07-25T20:16:59.382Z,11.68
2022-07-25T20:22:03.402Z,9.20
2022-07-25T20:27:07.942Z,6.47
2022-07-25T20:32:10.987Z,5.60
2022-07-25T20:37:14.114Z,5.65
2022-07-25T20:42:19.146Z,5.85
2022-07-25T20:47:22.304Z,6.53
2022-07-25T20:52:27.409Z,5.75
2022-07-25T20:57:31.736Z,5.97
2022-07-25T21:02:34.831Z,5.50
2022-07-25T21:07:37.939Z,5.80
2022-07-25T21:12:42.506Z,6.07
2022-07-25T21:17:45.881Z,6.13
2022-07-25T21:22:49.148Z,6.15
2022-07-25T21:27:53.647Z,6.32
2022-07-25T21:32:56.892Z,5.53
2022-07-25T21:38:00.155Z,6.50
2022-07-25T21:43:04.578Z,9.57
2022-07-25T21:48:08.750Z,6.97
2022-07-25T21:53:14.594Z,6.40
2022-07-25T21:58:21.564Z,5.95
2022-07-25T22:03:26.209Z,6.25
2022-07-25T22:08:29.331Z,7.18
2022-07-25T22:13:33.856Z,7.50
2022-07-25T22:18:36.885Z,8.35
2022-07-25T22:23:40.695Z,8.20
2022-07-25T22:28:45.825Z,7.60
2022-07-25T22:33:49.073Z,8.52
2022-07-25T22:38:53.055Z,8.65
2022-07-25T22:43:59.968Z,7.80
2022-07-25T22:49:04.406Z,8.35
2022-07-25T22:54:07.757Z,7.33
2022-07-25T22:59:13.103Z,7.70
2022-07-25T23:04:16.352Z,7.63
2022-07-25T23:09:19.725Z,8.75
2022-07-25T23:14:24.246Z,7.70
2022-07-25T23:19:27.335Z,8.00
2022-07-25T23:24:34.405Z,7.40
2022-07-25T23:29:42.033Z,8.00
2022-07-25T23:34:45.464Z,7.78
2022-07-25T23:39:49.167Z,8.02
2022-07-25T23:44:53.811Z,8.23
2022-07-25T23:49:58.366Z,7.88
2022-07-25T23:55:01.534Z,9.00
